createdAt,value
2023-01-29T00:02:09.217Z,9.10
2023-01-29T00:05:26.567Z,8.67
2023-01-29T00:08:29.053Z,10.38
2023-01-29T00:11:30.384Z,8.95
2023-01-29T00:14:31.682Z,9.45
2023-01-29T00:17:32.996Z,9.05
2023-01-29T00:20:34.312Z,9.73
2023-01-29T00:23:35.635Z,9.02
2023-01-29T00:26:36.931Z,9.65
2023-01-29T00:29:38.222Z,9.25
2023-01-29T00:32:39.519Z,9.07
2023-01-29T00:35:40.831Z,10.70
2023-01-29T00:38:42.132Z,9.40
2023-01-29T00:41:43.454Z,9.45
2023-01-29T00:44:44.742Z,9.18
2023-01-29T00:47:46.056Z,9.45
2023-01-29T00:50:47.360Z,9.53
2023-01-29T00:53:48.675Z,9.20
2023-01-29T00:56:49.966Z,9.88
2023-01-29T00:59:51.275Z,9.68
2023-01-29T01:02:52.599Z,8.95
2023-01-29T01:05:53.892Z,9.03
2023-01-29T01:08:55.202Z,10.23
2023-01-29T01:11:56.514Z,9.95
2023-01-29T01:14:57.956Z,10.75
2023-01-29T01:17:59.267Z,9.57
2023-01-29T01:21:00.577Z,9.37
2023-01-29T01:24:01.913Z,9.98
2023-01-29T01:27:03.236Z,10.90
2023-01-29T01:30:04.532Z,10.93
2023-01-29T01:33:05.842Z,9.05
2023-01-29T01:36:07.117Z,9.73
2023-01-29T01:39:08.427Z,10.25
2023-01-29T01:42:09.710Z,9.98
2023-01-29T01:45:11.017Z,9.23
2023-01-29T01:48:12.388Z,9.90
2023-01-29T01:51:13.688Z,9.43
2023-01-29T01:54:14.978Z,9.60
2023-01-29T01:57:16.287Z,10.88
2023-01-29T02:00:17.811Z,9.40
2023-01-29T02:03:19.276Z,9.60
2023-01-29T02:06:20.608Z,10.80
2023-01-29T02:09:21.906Z,10.48
2023-01-29T02:12:23.223Z,9.68
2023-01-29T02:15:24.508Z,8.98
2023-01-29T02:18:25.864Z,10.00
2023-01-29T02:21:27.177Z,10.07
2023-01-29T02:24:28.568Z,10.20
2023-01-29T02:27:29.986Z,9.20
2023-01-29T02:30:31.310Z,10.57
2023-01-29T02:33:32.601Z,11.07
2023-01-29T02:36:33.931Z,9.03
2023-01-29T02:39:35.260Z,9.50
2023-01-29T02:42:36.565Z,10.55
2023-01-29T02:45:37.891Z,9.05
2023-01-29T02:48:39.229Z,8.63
2023-01-29T02:51:40.521Z,8.93
2023-01-29T02:54:43.048Z,8.38
2023-01-29T02:57:44.351Z,9.85
2023-01-29T03:00:45.683Z,9.02
2023-01-29T03:03:47.012Z,8.00
2023-01-29T03:06:48.291Z,9.83
2023-01-29T03:09:49.597Z,9.45
2023-01-29T03:12:50.945Z,9.57
2023-01-29T03:15:52.261Z,8.98
2023-01-29T03:18:53.596Z,8.43
2023-01-29T03:21:54.888Z,7.73
2023-01-29T03:24:56.203Z,8.43
2023-01-29T03:27:57.520Z,8.15
2023-01-29T03:30:58.869Z,9.45
2023-01-29T03:34:00.200Z,7.65
2023-01-29T03:37:01.535Z,7.30
2023-01-29T03:40:02.885Z,7.85
2023-01-29T03:43:04.183Z,8.23
2023-01-29T03:46:05.542Z,8.48
2023-01-29T03:49:06.896Z,7.40
2023-01-29T03:52:08.346Z,7.40
2023-01-29T03:55:09.634Z,7.50
2023-01-29T03:58:10.934Z,7.30
2023-01-29T04:01:12.280Z,7.10
2023-01-29T04:04:13.670Z,6.80
2023-01-29T04:07:15.005Z,6.67
2023-01-29T04:10:16.561Z,7.20
2023-01-29T04:13:17.988Z,7.82
2023-01-29T04:16:19.309Z,6.53
2023-01-29T04:19:20.633Z,7.47
2023-01-29T04:22:21.931Z,6.40
2023-01-29T04:25:23.203Z,6.18
2023-01-29T04:28:24.544Z,6.22
2023-01-29T04:31:25.994Z,7.18
2023-01-29T04:34:27.349Z,5.95
2023-01-29T04:37:28.671Z,5.97
2023-01-29T04:40:29.967Z,5.80
2023-01-29T04:43:31.249Z,6.53
2023-01-29T04:46:32.532Z,6.13
2023-01-29T04:49:33.843Z,5.82
2023-01-29T04:52:35.112Z,6.00
2023-01-29T04:55:36.429Z,5.78
2023-01-29T04:58:37.731Z,5.60
2023-01-29T05:01:39.101Z,6.18
2023-01-29T05:04:40.505Z,5.45
2023-01-29T05:07:41.798Z,5.37
2023-01-29T05:10:43.112Z,5.75
2023-01-29T05:13:44.418Z,5.32
2023-01-29T05:16:45.716Z,5.55
2023-01-29T05:19:47.048Z,6.05
2023-01-29T05:22:48.357Z,5.03
2023-01-29T05:25:49.666Z,5.72
2023-01-29T05:28:50.955Z,5.07
2023-01-29T05:31:52.363Z,4.68
2023-01-29T05:34:53.666Z,5.78
2023-01-29T05:37:54.974Z,5.43
2023-01-29T05:40:56.316Z,5.05
2023-01-29T05:43:57.628Z,5.53
2023-01-29T05:46:58.926Z,4.65
2023-01-29T05:50:00.241Z,5.00
2023-01-29T05:53:01.662Z,5.23
2023-01-29T05:56:03.006Z,4.82
2023-01-29T05:59:04.293Z,4.50
2023-01-29T06:02:05.646Z,4.70
2023-01-29T06:05:06.956Z,4.85
2023-01-29T06:08:08.249Z,5.27
2023-01-29T06:11:09.561Z,6.35
2023-01-29T06:14:10.853Z,5.90
2023-01-29T06:17:12.226Z,4.90
2023-01-29T06:20:13.672Z,4.88
2023-01-29T06:23:15.004Z,4.70
2023-01-29T06:26:16.319Z,5.10
2023-01-29T06:29:17.626Z,3.83
2023-01-29T06:32:19.001Z,4.65
2023-01-29T06:35:20.319Z,5.72
2023-01-29T06:38:21.626Z,4.73
2023-01-29T06:41:22.934Z,5.07
2023-01-29T06:44:24.254Z,4.30
2023-01-29T06:47:25.563Z,4.50
2023-01-29T06:50:26.881Z,4.70
2023-01-29T06:53:28.170Z,4.90
2023-01-29T06:56:29.490Z,5.15
2023-01-29T06:59:30.804Z,5.22
2023-01-29T07:02:32.121Z,4.65
2023-01-29T07:05:33.443Z,4.65
2023-01-29T07:08:34.758Z,5.47
2023-01-29T07:11:36.057Z,5.07
2023-01-29T07:14:37.346Z,5.03
2023-01-29T07:17:38.659Z,3.88
2023-01-29T07:20:39.974Z,4.45
2023-01-29T07:23:41.262Z,4.27
2023-01-29T07:26:42.572Z,4.82
2023-01-29T07:29:43.866Z,5.47
2023-01-29T07:32:45.183Z,4.95
2023-01-29T07:35:46.484Z,4.22
2023-01-29T07:38:47.781Z,5.03
2023-01-29T07:41:49.095Z,5.18
2023-01-29T07:44:50.411Z,4.95
2023-01-29T07:47:51.732Z,4.70
2023-01-29T07:50:53.021Z,4.47
2023-01-29T07:53:54.357Z,4.93
2023-01-29T07:56:55.672Z,5.10
2023-01-29T07:59:56.985Z,4.63
2023-01-29T08:02:58.309Z,4.50
2023-01-29T08:05:59.675Z,4.47
2023-01-29T08:09:00.988Z,4.20
2023-01-29T08:12:02.286Z,4.88
2023-01-29T08:15:03.572Z,5.00
2023-01-29T08:18:04.901Z,5.18
2023-01-29T08:21:06.222Z,4.20
2023-01-29T08:24:07.557Z,4.63
2023-01-29T08:27:08.862Z,4.53
2023-01-29T08:30:10.188Z,4.95
2023-01-29T08:33:11.490Z,4.82
2023-01-29T08:36:12.817Z,4.43
2023-01-29T08:39:14.132Z,4.20
2023-01-29T08:42:15.441Z,4.40
2023-01-29T08:45:16.734Z,4.78
2023-01-29T08:48:18.051Z,4.00
2023-01-29T08:51:19.362Z,4.18
2023-01-29T08:54:20.805Z,3.67
2023-01-29T08:57:24.904Z,3.83
2023-01-29T09:00:26.212Z,4.55
2023-01-29T09:03:27.529Z,3.60
2023-01-29T09:06:28.843Z,4.35
2023-01-29T09:09:30.151Z,4.33
2023-01-29T09:12:31.458Z,4.03
2023-01-29T09:15:32.797Z,4.60
2023-01-29T09:18:34.119Z,4.18
2023-01-29T09:21:35.402Z,4.20
2023-01-29T09:24:36.726Z,3.80
2023-01-29T09:27:38.033Z,4.28
2023-01-29T09:30:39.397Z,4.93
2023-01-29T09:33:40.774Z,3.80
2023-01-29T09:36:42.077Z,4.10
2023-01-29T09:39:43.529Z,4.30
2023-01-29T09:42:44.830Z,3.75
2023-01-29T09:45:46.163Z,4.10
2023-01-29T09:48:47.468Z,4.88
2023-01-29T09:51:48.861Z,4.30
2023-01-29T09:54:50.162Z,3.90
2023-01-29T09:57:51.538Z,4.15
2023-01-29T10:00:52.901Z,4.82
2023-01-29T10:03:54.216Z,5.40
2023-01-29T10:06:55.528Z,4.20
2023-01-29T10:09:56.841Z,3.60
2023-01-29T10:12:58.168Z,3.95
2023-01-29T10:15:59.577Z,4.40
2023-01-29T10:19:00.902Z,4.60
2023-01-29T10:22:02.515Z,3.95
2023-01-29T10:25:03.900Z,3.67
2023-01-29T10:28:05.232Z,4.25
2023-01-29T10:31:06.631Z,4.45
2023-01-29T10:34:07.959Z,3.60
2023-01-29T10:37:09.298Z,4.15
2023-01-29T10:40:10.612Z,4.43
2023-01-29T10:43:11.941Z,4.30
2023-01-29T10:46:13.250Z,4.00
2023-01-29T10:49:14.569Z,4.65
2023-01-29T10:52:15.872Z,4.20
2023-01-29T10:55:17.553Z,4.03
2023-01-29T10:58:19.035Z,4.22
2023-01-29T11:01:20.650Z,4.78
2023-01-29T11:04:22.017Z,4.78
2023-01-29T11:07:23.315Z,4.45
2023-01-29T11:10:24.671Z,4.33
2023-01-29T11:13:25.963Z,4.10
2023-01-29T11:16:27.483Z,4.10
2023-01-29T11:19:28.835Z,3.40
2023-01-29T11:22:30.337Z,3.47
2023-01-29T11:25:31.687Z,3.70
2023-01-29T11:28:32.987Z,3.90
2023-01-29T11:31:34.364Z,5.35
2023-01-29T11:34:35.741Z,4.13
2023-01-29T11:37:37.086Z,3.85
2023-01-29T11:40:38.446Z,4.13
2023-01-29T11:43:39.779Z,4.13
2023-01-29T11:46:41.124Z,4.38
2023-01-29T11:49:42.496Z,3.88
2023-01-29T11:52:44.066Z,4.15
2023-01-29T11:55:50.768Z,3.70
2023-01-29T11:58:52.453Z,4.47
2023-01-29T12:01:53.787Z,4.45
2023-01-29T12:04:55.206Z,4.10
2023-01-29T12:07:56.531Z,3.95
2023-01-29T12:10:57.818Z,4.07
2023-01-29T12:13:59.125Z,3.78
2023-01-29T12:17:00.401Z,4.07
2023-01-29T12:20:01.737Z,3.65
2023-01-29T12:23:03.059Z,4.22
2023-01-29T12:26:04.524Z,4.03
2023-01-29T12:29:05.924Z,4.78
2023-01-29T12:32:07.584Z,4.53
2023-01-29T12:35:08.959Z,4.25
2023-01-29T12:38:10.277Z,3.58
2023-01-29T12:41:11.636Z,3.50
2023-01-29T12:44:13.214Z,4.15
2023-01-29T12:47:16.989Z,3.70
2023-01-29T12:50:18.737Z,3.75
2023-01-29T12:53:20.335Z,3.80
2023-01-29T12:56:21.650Z,3.83
2023-01-29T12:59:22.957Z,4.05
2023-01-29T13:02:24.275Z,4.82
2023-01-29T13:05:25.581Z,3.90
2023-01-29T13:08:27.327Z,3.60
2023-01-29T13:11:28.686Z,4.53
2023-01-29T13:14:30.002Z,4.05
2023-01-29T13:17:31.335Z,4.65
2023-01-29T13:20:32.640Z,3.70
2023-01-29T13:23:34.354Z,3.97
2023-01-29T13:26:36.051Z,4.00
2023-01-29T13:29:37.780Z,4.05
2023-01-29T13:32:39.456Z,4.07
2023-01-29T13:35:40.827Z,4.38
2023-01-29T13:38:42.608Z,3.78
2023-01-29T13:41:44.006Z,4.57
2023-01-29T13:44:45.643Z,4.13
2023-01-29T13:47:47.194Z,4.25
2023-01-29T13:50:48.576Z,4.35
2023-01-29T13:53:49.945Z,4.05
2023-01-29T13:56:51.266Z,4.10
2023-01-29T13:59:52.822Z,4.55
2023-01-29T14:02:54.245Z,4.32
2023-01-29T14:05:55.823Z,4.63
2023-01-29T14:08:57.242Z,4.13
2023-01-29T14:11:58.551Z,4.50
2023-01-29T14:14:59.885Z,4.43
2023-01-29T14:18:01.203Z,4.10
2023-01-29T14:21:02.596Z,3.97
2023-01-29T14:24:04.261Z,4.50
2023-01-29T14:27:05.977Z,4.30
2023-01-29T14:30:07.358Z,4.40
2023-01-29T14:33:08.720Z,4.55
2023-01-29T14:36:10.428Z,4.13
2023-01-29T14:39:12.334Z,4.43
2023-01-29T14:42:13.892Z,4.83
2023-01-29T14:45:15.854Z,4.35
2023-01-29T14:48:17.440Z,4.75
2023-01-29T14:51:18.800Z,4.53
2023-01-29T14:54:20.147Z,4.03
2023-01-29T14:57:21.686Z,4.37
2023-01-29T15:00:23.084Z,5.25
2023-01-29T15:03:24.742Z,4.80
2023-01-29T15:06:26.190Z,3.40
2023-01-29T15:09:35.959Z,4.30
2023-01-29T15:12:38.194Z,5.03
2023-01-29T15:15:39.902Z,4.20
2023-01-29T15:18:41.883Z,4.45
2023-01-29T15:21:43.636Z,4.47
2023-01-29T15:24:45.041Z,3.90
2023-01-29T15:27:46.358Z,4.77
2023-01-29T15:30:48.118Z,4.30
2023-01-29T15:33:49.557Z,5.20
2023-01-29T15:36:50.855Z,3.92
2023-01-29T15:39:53.231Z,4.50
2023-01-29T15:42:54.602Z,3.63
2023-01-29T15:45:55.920Z,4.40
2023-01-29T15:48:57.257Z,4.93
2023-01-29T15:51:59.756Z,5.15
2023-01-29T15:55:01.223Z,4.90
2023-01-29T15:58:02.993Z,4.07
2023-01-29T16:01:04.893Z,4.20
2023-01-29T16:04:06.473Z,4.68
2023-01-29T16:07:09.800Z,4.20
2023-01-29T16:10:11.545Z,4.53
2023-01-29T16:13:12.950Z,4.97
2023-01-29T16:16:14.302Z,4.60
2023-01-29T16:19:16.130Z,4.22
2023-01-29T16:22:17.922Z,5.43
2023-01-29T16:25:20.061Z,4.57
2023-01-29T16:28:21.690Z,5.37
2023-01-29T16:31:23.290Z,5.45
2023-01-29T16:34:24.981Z,5.50
2023-01-29T16:37:26.722Z,6.75
2023-01-29T16:40:28.454Z,4.82
2023-01-29T16:43:37.501Z,5.00
2023-01-29T16:46:43.794Z,4.65
2023-01-29T16:49:45.651Z,4.75
2023-01-29T16:52:47.466Z,4.43
2023-01-29T16:55:49.320Z,5.03
2023-01-29T16:58:51.095Z,4.97
2023-01-29T17:01:53.013Z,5.95
2023-01-29T17:04:54.890Z,4.72
2023-01-29T17:07:56.389Z,5.25
2023-01-29T17:10:58.688Z,5.70
2023-01-29T17:14:00.550Z,5.00
2023-01-29T17:17:03.036Z,5.65
2023-01-29T17:20:04.775Z,5.03
2023-01-29T17:23:07.299Z,5.43
2023-01-29T17:26:09.218Z,5.50
2023-01-29T17:29:11.121Z,5.53
2023-01-29T17:32:13.524Z,5.05
2023-01-29T17:35:15.704Z,5.78
2023-01-29T17:38:26.095Z,6.05
2023-01-29T17:41:28.537Z,5.45
2023-01-29T17:44:33.017Z,5.70
2023-01-29T17:47:34.903Z,5.95
2023-01-29T17:50:36.850Z,6.32
2023-01-29T17:53:47.577Z,5.07
2023-01-29T17:56:49.622Z,5.35
2023-01-29T17:59:51.492Z,6.40
2023-01-29T18:02:53.398Z,5.43
2023-01-29T18:05:54.800Z,5.60
2023-01-29T18:08:57.463Z,5.82
2023-01-29T18:11:59.225Z,6.35
2023-01-29T18:15:00.885Z,6.67
2023-01-29T18:18:02.915Z,6.85
2023-01-29T18:21:04.803Z,7.07
2023-01-29T18:24:06.382Z,6.70
2023-01-29T18:27:08.461Z,7.15
2023-01-29T18:30:10.332Z,7.00
2023-01-29T18:33:12.188Z,5.80
2023-01-29T18:36:13.990Z,8.10
2023-01-29T18:39:15.366Z,6.80
2023-01-29T18:42:17.069Z,7.03
2023-01-29T18:45:19.185Z,6.80
2023-01-29T18:48:20.819Z,6.38
2023-01-29T18:51:22.131Z,6.20
2023-01-29T18:54:23.824Z,6.35
2023-01-29T18:58:25.074Z,7.15
2023-01-29T19:00:46.998Z,6.53
2023-01-29T19:03:48.942Z,6.43
2023-01-29T19:06:50.728Z,6.82
2023-01-29T19:09:52.572Z,7.15
2023-01-29T19:12:54.367Z,6.60
2023-01-29T19:15:56.122Z,6.33
2023-01-29T19:18:58.035Z,7.47
2023-01-29T19:21:59.851Z,6.78
2023-01-29T19:25:01.611Z,6.60
2023-01-29T19:28:03.445Z,5.50
2023-01-29T19:31:05.325Z,6.53
2023-01-29T19:34:07.180Z,6.80
2023-01-29T19:37:08.998Z,5.90
2023-01-29T19:40:10.414Z,6.18
2023-01-29T19:43:12.186Z,6.00
2023-01-29T19:46:14.068Z,7.00
2023-01-29T19:49:16.015Z,6.60
2023-01-29T19:52:17.839Z,6.55
2023-01-29T19:55:20.614Z,6.88
2023-01-29T19:58:22.679Z,6.93
2023-01-29T20:01:24.088Z,7.20
2023-01-29T20:04:25.774Z,6.32
2023-01-29T20:07:27.149Z,6.25
2023-01-29T20:10:28.883Z,7.20
2023-01-29T20:13:30.708Z,6.80
2023-01-29T20:16:32.157Z,6.83
2023-01-29T20:19:33.893Z,7.45
2023-01-29T20:22:35.640Z,6.90
2023-01-29T20:25:39.854Z,7.50
2023-01-29T20:28:41.779Z,7.55
2023-01-29T20:31:43.935Z,7.70
2023-01-29T20:34:46.303Z,7.53
2023-01-29T20:37:47.839Z,7.10
2023-01-29T20:40:49.575Z,6.93
2023-01-29T20:43:51.399Z,7.38
2023-01-29T20:46:53.220Z,7.17
2023-01-29T20:49:55.077Z,8.00
2023-01-29T20:52:57.105Z,9.23
2023-01-29T20:55:58.970Z,7.55
2023-01-29T20:59:01.047Z,8.82
2023-01-29T21:02:02.817Z,8.70
2023-01-29T21:05:04.613Z,8.13
2023-01-29T21:08:06.477Z,9.20
2023-01-29T21:11:08.580Z,9.00
2023-01-29T21:14:12.617Z,9.50
2023-01-29T21:17:14.023Z,8.60
2023-01-29T21:20:15.896Z,9.13
2023-01-29T21:23:17.501Z,8.38
2023-01-29T21:26:19.124Z,9.55
2023-01-29T21:29:20.664Z,8.57
2023-01-29T21:32:22.440Z,8.57
2023-01-29T21:35:24.731Z,8.45
2023-01-29T21:38:26.098Z,8.13
2023-01-29T21:41:27.434Z,7.90
2023-01-29T21:44:32.573Z,8.43
2023-01-29T21:47:34.909Z,7.83
2023-01-29T21:50:36.722Z,7.30
2023-01-29T21:53:38.104Z,7.60
2023-01-29T21:56:39.406Z,7.80
2023-01-29T21:59:40.722Z,7.20
2023-01-29T22:02:42.126Z,7.37
2023-01-29T22:05:43.538Z,6.68
2023-01-29T22:08:44.889Z,7.95
2023-01-29T22:11:46.430Z,6.82
2023-01-29T22:14:47.734Z,7.35
2023-01-29T22:17:49.034Z,6.93
2023-01-29T22:20:50.336Z,7.45
2023-01-29T22:23:51.646Z,7.47
2023-01-29T22:26:52.957Z,5.78
2023-01-29T22:29:54.270Z,8.27
2023-01-29T22:32:55.583Z,7.43
2023-01-29T22:35:56.959Z,7.22
2023-01-29T22:38:58.254Z,7.63
2023-01-29T22:41:59.563Z,8.02
2023-01-29T22:45:00.897Z,8.00
2023-01-29T22:48:02.210Z,7.23
2023-01-29T22:51:03.515Z,7.57
2023-01-29T22:54:04.840Z,7.55
2023-01-29T22:57:06.132Z,7.63
2023-01-29T23:00:07.426Z,7.57
2023-01-29T23:03:08.740Z,6.47
2023-01-29T23:06:10.030Z,6.82
2023-01-29T23:09:11.350Z,7.18
2023-01-29T23:12:12.646Z,7.65
2023-01-29T23:15:13.972Z,7.63
2023-01-29T23:18:15.263Z,6.40
2023-01-29T23:21:16.594Z,7.05
2023-01-29T23:24:17.879Z,6.50
2023-01-29T23:27:19.171Z,7.60
2023-01-29T23:30:20.636Z,7.75
2023-01-29T23:33:22.216Z,7.77
2023-01-29T23:36:23.532Z,7.25
2023-01-29T23:39:24.851Z,7.25
2023-01-29T23:42:26.209Z,7.28
2023-01-29T23:45:27.515Z,6.90
2023-01-29T23:48:28.823Z,7.07
2023-01-29T23:51:30.129Z,7.82
2023-01-29T23:54:31.440Z,7.18
2023-01-29T23:57:32.775Z,6.28
